WIF27A ENBN-ENBO
Flight info
| Callsign | WIF27A |
|---|---|
| Flight time | 0h 16m |
| Altitude | 19000 |
| Route | PEPIB DCT RANUM |
| Aircraft | DH8B/M-SDFGR/S |
Departure
| Time | 2026-05-04 17:00 |
|---|---|
| Airport | Brønnøysund Airport, Brønnøy (ENBN) |
Arrival
| Time | 2026-05-04 17:16 |
|---|---|
| Airport | Bodø Airport (ENBO) |
| Time | Latitude | Longitude | Altitude | Speed | Heading |
|---|---|---|---|---|---|
| 2026-05-04 16:52 | 65.45962 | 12.21006 | 33 ft | 0 kts | 308° |
| 2026-05-04 16:55 | 65.45958 | 12.21019 | 33 ft | 0 kts | 308° |
| 2026-05-04 16:58 | 65.45933 | 12.21001 | 33 ft | 8 kts | 181° |
| 2026-05-04 16:58 | 65.45852 | 12.20991 | 33 ft | 15 kts | 140° |
| 2026-05-04 16:59 | 65.45809 | 12.21165 | 31 ft | 0 kts | 38° |
| 2026-05-04 17:00 | 65.48633 | 12.22674 | 1458 ft | 169 kts | 329° |
| 2026-05-04 17:00 | 65.51894 | 12.19675 | 3830 ft | 168 kts | 340° |
| 2026-05-04 17:01 | 65.54125 | 12.17932 | 5371 ft | 169 kts | 356° |
| 2026-05-04 17:01 | 65.56469 | 12.17316 | 6899 ft | 173 kts | 351° |
| 2026-05-04 17:02 | 65.58905 | 12.16629 | 8455 ft | 179 kts | 352° |
| 2026-05-04 17:02 | 65.61407 | 12.15889 | 10004 ft | 185 kts | 353° |
| 2026-05-04 17:03 | 65.62691 | 12.15481 | 10766 ft | 187 kts | 352° |
| 2026-05-04 17:03 | 65.63984 | 12.15736 | 11530 ft | 192 kts | 20° |
| 2026-05-04 17:03 | 65.66201 | 12.19573 | 13124 ft | 198 kts | 27° |
| 2026-05-04 17:04 | 65.68713 | 12.23149 | 14249 ft | 221 kts | 29° |
| 2026-05-04 17:04 | 65.79274 | 12.39064 | 18313 ft | 259 kts | 28° |
| 2026-05-04 17:05 | 65.85035 | 12.47790 | 18769 ft | 300 kts | 29° |
| 2026-05-04 17:05 | 65.95124 | 12.63188 | 21918 ft | 289 kts | 30° |
| 2026-05-04 17:06 | 66.09364 | 12.85203 | 24642 ft | 335 kts | 31° |
| 2026-05-04 17:06 | 66.17315 | 12.97590 | 24613 ft | 337 kts | 30° |
| 2026-05-04 17:07 | 66.33200 | 13.22699 | 24597 ft | 336 kts | 31° |
| 2026-05-04 17:07 | 66.38444 | 13.31067 | 24592 ft | 338 kts | 31° |
| 2026-05-04 17:07 | 66.48933 | 13.47902 | 24586 ft | 335 kts | 32° |
| 2026-05-04 17:07 | 66.56355 | 13.59918 | 22969 ft | 310 kts | 31° |
| 2026-05-04 17:08 | 66.63486 | 13.71511 | 20657 ft | 298 kts | 32° |
| 2026-05-04 17:08 | 66.75388 | 13.91169 | 16856 ft | 280 kts | 31° |
| 2026-05-04 17:08 | 66.77017 | 13.93833 | 16310 ft | 277 kts | 30° |
| 2026-05-04 17:09 | 66.80184 | 13.96649 | 15317 ft | 266 kts | 9° |
| 2026-05-04 17:09 | 66.87002 | 14.02268 | 13265 ft | 254 kts | 14° |
| 2026-05-04 17:09 | 66.93600 | 14.07910 | 11070 ft | 245 kts | 17° |
| 2026-05-04 17:10 | 66.96617 | 14.10453 | 10071 ft | 241 kts | 15° |
| 2026-05-04 17:10 | 67.04017 | 14.16812 | 7854 ft | 223 kts | 15° |
| 2026-05-04 17:11 | 67.09714 | 14.21738 | 6209 ft | 214 kts | 13° |
| 2026-05-04 17:11 | 67.11367 | 14.23118 | 5645 ft | 217 kts | 16° |
| 2026-05-04 17:11 | 67.14207 | 14.25779 | 4581 ft | 217 kts | 20° |
| 2026-05-04 17:12 | 67.15466 | 14.27852 | 4051 ft | 218 kts | 36° |
| 2026-05-04 17:12 | 67.17780 | 14.32959 | 3501 ft | 219 kts | 37° |
| 2026-05-04 17:13 | 67.21232 | 14.40622 | 2750 ft | 218 kts | 37° |
| 2026-05-04 17:14 | 67.24412 | 14.47748 | 2232 ft | 177 kts | 38° |
| 2026-05-04 17:14 | 67.25356 | 14.49582 | 1960 ft | 162 kts | 18° |
| 2026-05-04 17:14 | 67.27208 | 14.48291 | 1365 ft | 144 kts | 307° |
| 2026-05-04 17:15 | 67.27604 | 14.45923 | 954 ft | 148 kts | 276° |
| 2026-05-04 17:15 | 67.27275 | 14.41026 | 259 ft | 127 kts | 260° |
| 2026-05-04 17:16 | 67.26985 | 14.37282 | 42 ft | 46 kts | 258° |
| 2026-05-04 17:16 | 67.27114 | 14.36418 | 42 ft | 16 kts | 348° |
| 2026-05-04 17:17 | 67.27199 | 14.36465 | 42 ft | 13 kts | 38° |
| 2026-05-04 17:17 | 67.27239 | 14.36528 | 42 ft | 0 kts | 29° |